Quebec, Canada

2:54 AM EDT on August 28, 2015 (GMT -0400)
Quebec-Lesage International | | Change Station
CLOSE
Current Station
Airport
Location: Quebec,
Elevation: 243 ft
Nearby Weather Stations

Elev 243 ft 46.79 °N, 71.39 °W | Updated 54 minutes ago

Clear
Clear
54 °F
Feels Like 54 °F
N
7
Wind Variable Wind from SW

Today
High -- | Low -- °F
--% Chance of Precip.
Yesterday
High -- | Low -- °F
Precip. -- in
5:59 AM 7:33 PM
Waxing Gibbous, 97% visible
Pressure 30.05 in
Visibility 15.0 miles
Clouds Clear
Dew Point 52 °F
Humidity 94%
Rainfall 0.00 in
Snow Depth Not available.
UV 0 out of 12
Pollen Not available.
Air Quality Not available.
Flu Activity Not available.
METAR CYQB 280600Z 23006KT 15SM SKC 12/11 A3004 RMK SLP174
Pressure 30.05 in
Visibility 15.0 miles
Clouds Clear
Dew Point 52 °F
Humidity 94%
Rainfall 0.00 in
Snow Depth Not available.
UV 0 out of 12
Pollen Not available.
Air Quality Not available.
Flu Activity Not available.
METAR CYQB 280600Z 23006KT 15SM SKC 12/11 A3004 RMK SLP174

10-Day Weather Forecast

×

Almanac

Astronomy

Aug. 28, 2015 Rise Set
Actual Time
Civil Twilight
Nautical Twilight
Astronomical Twilight
Moon
Length of Visible Light
Length of Day
Tomorrow will be .
, % of the Moon is Illuminated

Today's Extremes

Country Highs Country Lows

Community

WunderPhotos

Upload Photos

1,850,341 photos uploaded!

WunderBlogs® & News

Nearby

Air Quality

  Air Quality AQ Index Pollutant
Not available.

Snow Depth

Station Depth Elevation

Earthquake Activity

City Distance Mag. Time & Date
Minimum magnitude displayed is 2.5.

Coastal Water Temperatures

Place Temperature

Stations

Nearby Weather Stations

Station Location Temp. Windchill Dew Point Humidity Wind Precip. Elev Updated Type